AirNav   Bose Proflight Series 2 Wireless Aviation Headset
 
 1131 users online  

2FD9 Advent Health Deland Heliport
De Land, Florida, USA

GOING TO DE LAND?


FAA INFORMATION EFFECTIVE 07 NOVEMBER 2019

Location

FAA Identifier: 2FD9
Lat/Long: 29-02-40.6700N 081-19-04.2200W
29-02.677833N 081-19.070333W
29.0446306,-81.3178389
(estimated)
Elevation: 78 ft. / 24 m (estimated)
Variation: 03W (1985)
Time zone: UTC -5 (UTC -4 during Daylight Saving Time)
Zip code: 32720

Heliport Operations

Heliport use: Private use, MEDICAL.
Activation date: 10/1987
Control tower: no
ARTCC: JACKSONVILLE CENTER
FSS: SAINT PETERSBURG FLIGHT SERVICE STATION
Attendance: CONTINUOUS
Wind indicator: yes
Segmented circle: no
Lights: FOR FLOOD LGTS CALL 904-734-3320.

Heliport Communications

WX AWOS-3 at DED (2.2 nm NE): 119.575 (386-740-5811)
WX ASOS at DAB (16 nm NE): PHONE 386-253-7469
WX ASOS at SFB (17 nm S): PHONE 407-321-9384
WX AWOS-3 at OMN (19 nm NE): 118.475 (386-615-7084)
WX AWOS-3 at EVB (19 nm E): 124.625 (386-409-4705)

Nearby radio navigation aids

VOR radial/distance  VOR name  Freq  Var
OMNr215/18.9ORMOND BEACH VORTAC112.6000E
ORLr002/30.1ORLANDO VORTAC112.2000E

Heliport Services

Runway Information

Helipad H1

Dimensions: 112 x 92 ft. / 34 x 28 m
Surface: concrete
Runway edge lights: FLD
Latitude: 29-02.677833N
Longitude: 081-19.070333W
Elevation: 78.0 ft.
Traffic pattern: leftleft

Heliport Ownership and Management from official FAA records

Ownership: Publicly-owned
Owner: WEST VOLUSIA MEMORIAL HOSP
701 W PLYMOUTH AVE
DELAND, FL 32720
Phone 386-943-4810
Manager: FACILITIES MANAGER
701 W PLYMOUTH AVE
DELAND, FL 32720
Phone 386-943-4810
ADDITIONAL CONTACT: STEVE VIOLA

Additional Remarks

A52-H1 RED MKR ON RDO ANT-L; RED MKR ON BLDG PROJECTIONS-L; PLINE MKRS E SIDE.
FOR CD CTC DAYTONA APCH AT 386-226-3939.

Instrument Procedures

There are no published instrument procedures at 2FD9.

Some nearby airports with instrument procedures:

KDED - DeLand Municipal Airport-Sidney H Taylor Field (2 nm NE)
KDAB - Daytona Beach International Airport (16 nm NE)
KSFB - Orlando Sanford International Airport (17 nm S)
KOMN - Ormond Beach Municipal Airport (19 nm NE)
X23 - Umatilla Municipal Airport (19 nm W)
KEVB - New Smyrna Beach Municipal Airport (19 nm E)
 
Loc | Ops | Rwys | IFR | FBO | Links
Com | Nav | Svcs | Stats | Notes
Area around 2FD9 (Advent Health Deland Heliport)
 
Road maps at: MapQuest Bing Google
 
Aerial photo
No photo
 
Sectional chart

 
Airport distance calculator
Flying to Advent Health Deland Heliport? Find the distance to fly.

From to 2FD9

Sunrise and sunset
Times for 20-Nov-2019
 Local
(UTC-5)
 Zulu
(UTC)
Morning civil twilight06:2811:28
Sunrise06:5411:54
Sunset17:2822:28
Evening civil twilight17:5322:53

Current date and time
Zulu (UTC)  20-Nov-2019 13:17:52
Local (UTC-5)  20-Nov-2019 08:17:52
 
METAR
KDED 
2nm NE 
201255Z AUTO 00000KT 10SM CLR 10/09 A3012 RMK AO2
KDAB 
16nm NE 
201253Z 29005KT 10SM CLR 12/10 A3013 RMK AO2 SLP200 T01170100
KSFB 
18nm S 
201253Z 29006KT 10SM CLR 12/10 A3013 RMK AO2 SLP201 T01170100
KOMN 
19nm NE 
201250Z 27004KT 5SM BR CLR 11/09 A3013
KEVB 
19nm E 
201247Z 28006KT 10SM CLR 12/09 A3013
TAF
KDAB 
16nm NE 
201125Z 2012/2112 26003KT P6SM SKC FM201500 33008KT P6SM SKC FM202200 03004KT P6SM SKC
KSFB 
18nm S 
201125Z 2012/2112 29004KT P6SM SKC FM201500 33008KT P6SM SKC FM202200 03004KT P6SM SKC
NOTAMs
Click for the latest NOTAMs
NOTAMs are issued by the DoD/FAA and will open in a separate window not controlled by AirNav.

 

 
 

Would you like to see your business listed on this page?

 If your business provides an interesting product or service to pilots, flight crews, aircraft, or users of the Advent Health Deland Heliport, you should consider listing it here.  To start the listing process, click on the button below
 
Add a business
 

Other Pages about Advent Health Deland Heliport

Update a link
 
Copyright © AirNav, LLC. All rights reserved. Privacy Policy  Contact